createdAt,value
2019-03-05T00:01:11.386Z,4.07
2019-03-05T00:03:39.922Z,1.20
2019-03-05T00:06:08.344Z,3.57
2019-03-05T00:08:36.765Z,3.97
2019-03-05T00:11:05.583Z,2.53
2019-03-05T00:13:34.005Z,3.70
2019-03-05T00:16:02.661Z,3.10
2019-03-05T00:18:31.109Z,2.97
2019-03-05T00:20:59.856Z,5.33
2019-03-05T00:23:49.115Z,4.33
2019-03-05T00:26:21.000Z,4.10
2019-03-05T00:28:52.744Z,1.23
2019-03-05T00:31:30.538Z,4.33
2019-03-05T00:34:04.874Z,6.10
2019-03-05T00:36:45.299Z,2.47
2019-03-05T00:39:28.875Z,2.93
2019-03-05T00:42:16.985Z,7.20
2019-03-05T00:44:54.518Z,3.00
2019-03-05T00:47:34.878Z,2.40
2019-03-05T00:50:15.142Z,1.60
2019-03-05T00:52:49.268Z,1.83
2019-03-05T00:55:23.973Z,2.70
2019-03-05T00:57:55.469Z,5.83
2019-03-05T01:00:29.678Z,9.53
2019-03-05T01:03:17.922Z,4.13
2019-03-05T01:05:58.549Z,1.90
2019-03-05T01:08:28.037Z,1.20
2019-03-05T01:10:56.532Z,2.67
2019-03-05T01:13:25.562Z,3.43
2019-03-05T01:15:54.158Z,6.33
2019-03-05T01:18:22.574Z,3.10
2019-03-05T01:20:51.243Z,5.40
2019-03-05T01:23:20.509Z,4.00
2019-03-05T01:25:48.926Z,1.20
2019-03-05T01:28:17.416Z,5.07
2019-03-05T01:31:04.561Z,2.17
2019-03-05T01:33:49.693Z,3.20
2019-03-05T01:36:22.268Z,2.03
2019-03-05T01:38:58.330Z,1.30
2019-03-05T01:41:26.778Z,5.10
2019-03-05T01:43:55.366Z,2.70
2019-03-05T01:46:23.795Z,3.27
2019-03-05T01:48:52.630Z,2.73
2019-03-05T01:51:21.050Z,9.60
2019-03-05T01:53:49.465Z,1.40
2019-03-05T01:56:17.980Z,5.80
2019-03-05T01:58:46.401Z,3.13
2019-03-05T02:01:14.896Z,7.33
2019-03-05T02:03:43.486Z,2.63
2019-03-05T02:06:11.903Z,4.03
2019-03-05T02:08:40.672Z,6.93
2019-03-05T02:11:09.812Z,4.67
2019-03-05T02:13:38.518Z,6.70
2019-03-05T02:16:06.957Z,10.27
2019-03-05T02:18:35.403Z,2.10
2019-03-05T02:21:03.828Z,6.40
2019-03-05T02:23:35.298Z,5.50
2019-03-05T02:26:21.627Z,7.47
2019-03-05T02:29:01.785Z,2.20
2019-03-05T02:31:42.524Z,3.53
2019-03-05T02:34:25.973Z,2.97
2019-03-05T02:37:06.312Z,5.97
2019-03-05T02:39:58.652Z,3.53
2019-03-05T02:42:41.771Z,7.50
2019-03-05T02:45:31.600Z,2.83
2019-03-05T02:48:22.372Z,3.53
2019-03-05T02:50:57.126Z,8.70
2019-03-05T02:53:46.568Z,2.80
2019-03-05T02:56:26.898Z,5.00
2019-03-05T02:58:54.494Z,5.10
2019-03-05T03:01:39.660Z,9.93
2019-03-05T03:04:15.941Z,6.43
2019-03-05T03:06:44.360Z,5.47
2019-03-05T03:09:52.785Z,2.57
2019-03-05T03:12:21.213Z,4.33
2019-03-05T03:14:49.631Z,1.90
2019-03-05T03:19:51.670Z,3.83
2019-03-05T03:22:20.083Z,3.70
2019-03-05T03:24:48.528Z,4.40
2019-03-05T03:27:16.941Z,1.70
2019-03-05T03:29:45.367Z,8.20
2019-03-05T03:32:13.812Z,2.50
2019-03-05T03:34:42.228Z,1.20
2019-03-05T03:37:10.654Z,1.87
2019-03-05T03:42:32.839Z,2.00
2019-03-05T03:45:01.285Z,2.83
2019-03-05T03:47:29.703Z,4.60
2019-03-05T03:49:58.395Z,2.33
2019-03-05T03:52:27.182Z,3.53
2019-03-05T03:54:55.670Z,2.33
2019-03-05T03:57:24.106Z,3.10
2019-03-05T03:59:52.688Z,3.00
2019-03-05T04:02:21.221Z,3.80
2019-03-05T04:04:49.695Z,4.10
2019-03-05T04:07:18.480Z,3.30
2019-03-05T04:09:46.898Z,2.37
2019-03-05T04:12:15.314Z,2.30
2019-03-05T04:14:43.759Z,8.07
2019-03-05T04:17:12.242Z,2.53
2019-03-05T04:19:40.678Z,3.43
2019-03-05T04:22:09.127Z,2.87
2019-03-05T04:24:37.609Z,3.70
2019-03-05T04:27:06.033Z,2.60
2019-03-05T04:29:34.476Z,11.43
2019-03-05T04:32:02.902Z,4.50
2019-03-05T04:34:31.665Z,1.93
2019-03-05T04:37:00.198Z,5.23
2019-03-05T04:39:28.615Z,1.33
2019-03-05T04:41:57.108Z,2.20
2019-03-05T04:44:27.331Z,2.43
2019-03-05T04:46:55.747Z,2.77
2019-03-05T04:49:28.520Z,5.03
2019-03-05T04:52:04.718Z,1.43
2019-03-05T04:54:33.145Z,2.33
2019-03-05T04:57:01.929Z,2.40
2019-03-05T04:59:30.388Z,1.20
2019-03-05T05:01:59.115Z,1.87
2019-03-05T05:04:27.559Z,2.23
2019-03-05T05:06:56.014Z,3.47
2019-03-05T05:09:24.507Z,3.03
2019-03-05T05:11:52.927Z,2.20
2019-03-05T05:14:21.373Z,2.73
2019-03-05T05:16:49.794Z,1.60
2019-03-05T05:19:18.244Z,3.40
2019-03-05T05:21:46.974Z,4.00
2019-03-05T05:24:15.394Z,2.10
2019-03-05T05:26:43.912Z,1.03
2019-03-05T05:29:12.362Z,7.20
2019-03-05T05:31:40.851Z,2.80
2019-03-05T05:34:09.274Z,1.53
2019-03-05T05:36:38.243Z,2.00
2019-03-05T05:39:09.998Z,4.63
2019-03-05T05:41:38.786Z,9.10
2019-03-05T05:44:07.233Z,1.23
2019-03-05T05:46:35.970Z,2.50
2019-03-05T05:49:04.387Z,3.83
2019-03-05T05:51:32.844Z,2.07
2019-03-05T05:54:01.275Z,3.63
2019-03-05T05:56:29.985Z,4.33
2019-03-05T05:58:58.526Z,3.83
2019-03-05T06:01:26.971Z,11.83
2019-03-05T06:03:55.389Z,5.33
2019-03-05T06:06:23.921Z,3.47
2019-03-05T06:08:52.699Z,2.70
2019-03-05T06:11:21.184Z,1.97
2019-03-05T06:13:49.626Z,5.40
2019-03-05T06:16:18.050Z,2.63
2019-03-05T06:18:46.463Z,8.50
2019-03-05T06:21:15.226Z,1.90
2019-03-05T06:23:43.646Z,4.03
2019-03-05T06:26:12.961Z,1.83
2019-03-05T06:28:41.406Z,3.00
2019-03-05T06:31:09.824Z,1.77
2019-03-05T06:33:38.406Z,2.87
2019-03-05T06:36:06.850Z,2.10
2019-03-05T06:38:35.340Z,6.90
2019-03-05T06:41:03.825Z,3.23
2019-03-05T06:43:32.282Z,4.57
2019-03-05T06:46:00.703Z,1.30
2019-03-05T06:48:29.129Z,2.13
2019-03-05T06:50:57.583Z,6.13
2019-03-05T06:53:26.067Z,1.53
2019-03-05T06:55:54.486Z,7.43
2019-03-05T06:58:22.929Z,1.57
2019-03-05T07:00:51.353Z,1.80
2019-03-05T07:03:19.867Z,5.70
2019-03-05T07:06:24.846Z,4.33
2019-03-05T07:08:58.847Z,2.00
2019-03-05T07:11:33.064Z,3.60
2019-03-05T07:14:04.534Z,2.93
2019-03-05T07:16:57.668Z,1.37
2019-03-05T07:19:28.626Z,3.17
2019-03-05T07:22:03.537Z,1.53
2019-03-05T07:24:45.634Z,3.60
2019-03-05T07:27:16.321Z,2.03
2019-03-05T07:29:44.836Z,2.87
2019-03-05T07:32:13.748Z,1.43
2019-03-05T07:34:46.953Z,1.80
2019-03-05T07:37:15.727Z,2.67
2019-03-05T07:39:44.150Z,9.43
2019-03-05T07:42:12.603Z,5.73
2019-03-05T07:44:41.017Z,1.43
2019-03-05T07:47:09.437Z,3.97
2019-03-05T07:49:43.693Z,4.63
2019-03-05T07:52:08.107Z,2.10
2019-03-05T07:54:36.632Z,3.07
2019-03-05T07:57:05.636Z,1.00
2019-03-05T07:59:34.049Z,5.00
2019-03-05T08:02:02.540Z,3.40
2019-03-05T08:04:31.084Z,4.57
2019-03-05T08:06:59.569Z,3.10
2019-03-05T08:09:38.578Z,1.23
2019-03-05T08:12:28.389Z,7.03
2019-03-05T08:15:00.456Z,11.00
2019-03-05T08:17:29.006Z,3.47
2019-03-05T08:19:57.577Z,1.90
2019-03-05T08:22:26.062Z,4.13
2019-03-05T08:24:54.581Z,4.87
2019-03-05T08:27:22.998Z,4.67
2019-03-05T08:29:51.527Z,3.03
2019-03-05T08:32:19.942Z,7.90
2019-03-05T08:34:48.447Z,3.00
2019-03-05T08:37:16.905Z,11.43
2019-03-05T08:39:45.393Z,2.03
2019-03-05T08:42:13.878Z,5.57
2019-03-05T08:44:50.317Z,4.33
2019-03-05T08:47:12.821Z,7.43
2019-03-05T08:49:41.244Z,4.87
2019-03-05T08:52:09.707Z,3.03
2019-03-05T08:54:38.119Z,7.70
2019-03-05T08:57:06.705Z,2.97
2019-03-05T08:59:35.601Z,9.20
2019-03-05T09:02:04.120Z,4.10
2019-03-05T09:04:32.631Z,3.17
2019-03-05T09:07:01.151Z,3.67
2019-03-05T09:09:29.664Z,2.27
2019-03-05T09:11:58.250Z,3.57
2019-03-05T09:14:26.928Z,4.93
2019-03-05T09:16:55.755Z,3.27
2019-03-05T09:19:24.201Z,3.03
2019-03-05T09:21:52.890Z,3.17
2019-03-05T09:24:21.450Z,1.03
2019-03-05T09:26:51.453Z,3.80
2019-03-05T09:29:20.258Z,2.30
2019-03-05T09:31:48.700Z,0.70
2019-03-05T09:34:17.156Z,1.63
2019-03-05T09:36:51.086Z,1.53
2019-03-05T09:39:15.957Z,0.60
2019-03-05T09:41:44.749Z,0.40
2019-03-05T09:44:13.438Z,0.80
2019-03-05T09:46:41.880Z,1.90
2019-03-05T09:49:10.325Z,1.60
2019-03-05T09:51:38.806Z,0.53
2019-03-05T09:54:26.523Z,1.07
2019-03-05T09:56:55.000Z,0.73
2019-03-05T09:59:23.465Z,1.03
2019-03-05T10:01:51.895Z,0.77
2019-03-05T10:04:20.396Z,0.40
2019-03-05T10:07:28.759Z,0.50
2019-03-05T10:12:50.026Z,0.70
2019-03-05T10:15:58.522Z,0.80
2019-03-05T10:18:26.966Z,0.60
2019-03-05T10:21:14.769Z,0.50
2019-03-05T10:24:23.133Z,1.43
2019-03-05T10:26:51.724Z,0.50
2019-03-05T10:29:39.365Z,0.53
2019-03-05T10:35:22.266Z,0.47
2019-03-05T10:41:38.907Z,1.33
2019-03-05T10:50:29.783Z,3.80
2019-03-05T10:53:38.262Z,0.90
2019-03-05T10:56:46.623Z,3.17
2019-03-05T10:59:15.173Z,1.17
2019-03-05T11:02:23.536Z,0.63
2019-03-05T11:05:11.337Z,2.27
2019-03-05T11:11:28.010Z,3.03
2019-03-05T11:14:16.166Z,0.60
2019-03-05T11:16:44.933Z,1.23
2019-03-05T11:19:32.709Z,1.37
2019-03-05T11:22:20.461Z,4.40
2019-03-05T11:24:48.917Z,1.90
2019-03-05T11:27:17.352Z,1.53
2019-03-05T11:30:05.031Z,1.07
2019-03-05T11:32:33.781Z,1.63
2019-03-05T11:35:21.457Z,0.97
2019-03-05T11:38:09.595Z,0.93
2019-03-05T11:43:33.353Z,1.00
2019-03-05T11:46:21.185Z,1.10
2019-03-05T11:48:49.760Z,0.70
2019-03-05T11:51:18.344Z,0.90
2019-03-05T11:54:06.034Z,1.20
2019-03-05T11:56:34.549Z,0.70
2019-03-05T11:59:22.358Z,1.53
2019-03-05T12:02:21.049Z,1.03
2019-03-05T12:07:34.131Z,0.97
2019-03-05T12:10:21.801Z,0.80
2019-03-05T12:13:09.565Z,2.60
2019-03-05T12:16:18.000Z,0.70
2019-03-05T12:18:46.416Z,1.17
2019-03-05T12:21:14.861Z,1.07
2019-03-05T12:26:36.888Z,0.40
2019-03-05T12:29:45.311Z,0.70
2019-03-05T12:32:15.407Z,0.73
2019-03-05T12:35:03.349Z,0.87
2019-03-05T12:37:31.788Z,0.53
2019-03-05T12:40:00.393Z,0.70
2019-03-05T12:45:44.396Z,0.70
2019-03-05T12:50:46.635Z,0.50
2019-03-05T12:53:34.445Z,0.77
2019-03-05T12:56:24.178Z,0.43
2019-03-05T13:01:25.908Z,0.87
2019-03-05T13:03:54.352Z,0.67
2019-03-05T13:06:22.865Z,1.27
2019-03-05T13:11:38.780Z,0.40
2019-03-05T13:14:11.223Z,0.80
2019-03-05T13:16:39.466Z,0.80
2019-03-05T13:22:00.756Z,0.43
2019-03-05T13:24:29.208Z,0.60
2019-03-05T13:26:57.873Z,0.50
2019-03-05T13:29:26.408Z,0.63
2019-03-05T13:31:54.865Z,0.40
2019-03-05T13:34:23.369Z,1.57
2019-03-05T13:36:51.825Z,0.53
2019-03-05T13:39:22.379Z,0.67
2019-03-05T13:41:53.763Z,1.77
2019-03-05T13:44:32.126Z,8.47
2019-03-05T13:47:04.590Z,0.57
2019-03-05T13:49:40.611Z,1.63
2019-03-05T13:52:36.089Z,0.50
2019-03-05T13:55:36.400Z,0.47
2019-03-05T13:58:13.544Z,0.50
2019-03-05T14:00:42.949Z,1.10
2019-03-05T14:03:17.472Z,0.40
2019-03-05T14:06:20.709Z,0.93
2019-03-05T14:09:15.168Z,0.70
2019-03-05T14:11:45.526Z,0.60
2019-03-05T14:14:19.664Z,0.53
2019-03-05T14:16:50.140Z,0.47
2019-03-05T14:19:18.683Z,0.60
2019-03-05T14:21:47.382Z,0.60
2019-03-05T14:24:16.137Z,1.47
2019-03-05T14:26:45.984Z,1.00
2019-03-05T14:29:14.417Z,1.57
2019-03-05T14:31:43.673Z,0.50
2019-03-05T14:34:12.201Z,4.20
2019-03-05T14:36:40.835Z,1.63
2019-03-05T14:39:25.507Z,0.60
2019-03-05T14:41:54.415Z,0.60
2019-03-05T14:44:23.109Z,1.03
2019-03-05T14:46:56.847Z,0.77
2019-03-05T14:49:25.495Z,0.70
2019-03-05T14:51:53.916Z,0.63
2019-03-05T14:54:22.494Z,0.90
2019-03-05T14:56:51.162Z,0.80
2019-03-05T14:59:20.243Z,0.50
2019-03-05T15:01:49.174Z,0.60
2019-03-05T15:04:17.643Z,1.27
2019-03-05T15:06:46.125Z,1.63
2019-03-05T15:09:14.926Z,0.83
2019-03-05T15:11:43.468Z,0.63
2019-03-05T15:14:11.973Z,0.60
2019-03-05T15:16:40.480Z,4.20
2019-03-05T15:19:20.624Z,0.60
2019-03-05T15:21:39.144Z,1.80
2019-03-05T15:24:07.665Z,0.80
2019-03-05T15:26:36.085Z,1.37
2019-03-05T15:29:04.948Z,0.70
2019-03-05T15:31:33.416Z,1.57
2019-03-05T15:34:01.908Z,2.43
2019-03-05T15:36:30.712Z,1.23
2019-03-05T15:38:59.159Z,1.23
2019-03-05T15:41:27.867Z,0.97
2019-03-05T15:43:56.448Z,3.00
2019-03-05T15:46:25.030Z,0.73
2019-03-05T15:48:53.457Z,1.30
2019-03-05T15:51:22.301Z,1.00
2019-03-05T15:53:50.867Z,3.53
2019-03-05T15:56:19.520Z,2.80
2019-03-05T15:58:47.969Z,2.47
2019-03-05T16:01:22.178Z,2.63
2019-03-05T16:03:47.648Z,1.10
2019-03-05T16:06:16.129Z,0.73
2019-03-05T16:08:44.595Z,2.23
2019-03-05T16:11:13.082Z,0.83
2019-03-05T16:13:41.856Z,0.63
2019-03-05T16:16:10.384Z,1.13
2019-03-05T16:18:39.416Z,1.00
2019-03-05T16:21:09.108Z,3.33
2019-03-05T16:23:37.823Z,0.53
2019-03-05T16:26:06.449Z,1.13
2019-03-05T16:28:34.984Z,1.40
2019-03-05T16:31:11.352Z,0.83
2019-03-05T16:33:40.094Z,3.03
2019-03-05T16:36:25.534Z,0.63
2019-03-05T16:39:00.202Z,0.70
2019-03-05T16:41:30.429Z,0.60
2019-03-05T16:44:03.236Z,0.97
2019-03-05T16:46:39.601Z,0.70
2019-03-05T16:49:18.646Z,0.70
2019-03-05T16:52:04.065Z,3.93
2019-03-05T16:54:34.330Z,2.03
2019-03-05T16:57:17.271Z,0.70
2019-03-05T16:59:53.545Z,0.90
2019-03-05T17:02:29.635Z,0.80
2019-03-05T17:05:12.483Z,1.73
2019-03-05T17:07:42.899Z,2.07
2019-03-05T17:10:31.392Z,1.00
2019-03-05T17:13:00.730Z,3.73
2019-03-05T17:15:29.341Z,1.47
2019-03-05T17:17:58.062Z,2.97
2019-03-05T17:20:26.778Z,5.73
2019-03-05T17:22:55.783Z,1.37
2019-03-05T17:25:24.598Z,1.77
2019-03-05T17:27:53.894Z,6.97
2019-03-05T17:30:22.878Z,1.63
2019-03-05T17:32:51.675Z,0.80
2019-03-05T17:35:20.412Z,0.90
2019-03-05T17:37:49.178Z,1.00
2019-03-05T17:40:17.852Z,2.00
2019-03-05T17:42:46.535Z,0.67
2019-03-05T17:45:20.847Z,2.20
2019-03-05T17:47:49.472Z,3.07
2019-03-05T17:50:18.212Z,2.47
2019-03-05T17:52:46.936Z,2.57
2019-03-05T17:55:24.111Z,1.30
2019-03-05T17:57:48.662Z,1.50
2019-03-05T18:00:21.555Z,1.53
2019-03-05T18:02:50.196Z,0.90
2019-03-05T18:05:19.174Z,1.03
2019-03-05T18:07:47.924Z,1.37
2019-03-05T18:10:16.844Z,0.80
2019-03-05T18:12:45.610Z,0.80
2019-03-05T18:15:16.152Z,1.90
2019-03-05T18:17:44.794Z,0.93
2019-03-05T18:20:18.581Z,1.43
2019-03-05T18:22:51.064Z,0.70
2019-03-05T18:25:19.995Z,0.93
2019-03-05T18:27:50.331Z,0.83
2019-03-05T18:30:24.683Z,1.70
2019-03-05T18:32:53.331Z,1.67
2019-03-05T18:35:23.938Z,1.33
2019-03-05T18:37:52.784Z,2.63
2019-03-05T18:40:23.704Z,1.60
2019-03-05T18:42:52.373Z,1.40
2019-03-05T18:45:25.050Z,1.40
2019-03-05T18:47:54.775Z,2.13
2019-03-05T18:50:23.542Z,1.43
2019-03-05T18:52:53.881Z,1.07
2019-03-05T18:55:24.116Z,3.00
2019-03-05T18:57:52.910Z,5.40
2019-03-05T19:00:23.499Z,1.50
2019-03-05T19:02:53.947Z,1.13
2019-03-05T19:05:22.914Z,4.03
2019-03-05T19:07:52.490Z,1.83
2019-03-05T19:10:27.480Z,2.47
2019-03-05T19:12:57.042Z,2.20
2019-03-05T19:15:26.886Z,3.33
2019-03-05T19:17:58.654Z,1.97
2019-03-05T19:20:33.848Z,2.53
2019-03-05T19:23:03.457Z,2.30
2019-03-05T19:25:36.531Z,2.33
2019-03-05T19:28:44.890Z,2.73
2019-03-05T19:31:15.690Z,2.70
2019-03-05T19:34:24.343Z,2.90
2019-03-05T19:37:12.478Z,2.83
2019-03-05T19:40:02.720Z,3.13
2019-03-05T19:42:50.525Z,3.17
2019-03-05T19:45:19.266Z,3.47
2019-03-05T19:48:07.040Z,4.23
2019-03-05T19:50:55.030Z,3.27
2019-03-05T19:56:32.202Z,3.93
2019-03-05T19:59:20.039Z,4.47
2019-03-05T20:04:42.057Z,4.80
2019-03-05T20:12:52.107Z,4.73
2019-03-05T20:18:34.628Z,7.00
2019-03-05T20:32:32.318Z,7.47
2019-03-05T20:38:14.010Z,6.97
2019-03-05T20:41:02.697Z,8.73
2019-03-05T20:43:31.356Z,9.80
2019-03-05T20:51:54.071Z,8.60
2019-03-05T20:57:16.036Z,8.93
2019-03-05T20:59:44.924Z,9.03
2019-03-05T21:02:13.673Z,10.37
2019-03-05T21:05:01.545Z,8.63
2019-03-05T21:07:51.205Z,11.33
2019-03-05T21:10:59.623Z,10.23
2019-03-05T21:13:47.552Z,11.33
2019-03-05T21:16:35.308Z,10.13
2019-03-05T21:19:23.161Z,9.67
2019-03-05T21:22:11.773Z,14.47
2019-03-05T21:24:59.709Z,10.73
2019-03-05T21:27:47.525Z,13.73
2019-03-05T21:33:28.601Z,9.40
2019-03-05T21:36:16.613Z,10.67
2019-03-05T21:41:38.531Z,8.90
2019-03-05T21:44:27.139Z,11.50
2019-03-05T21:47:16.952Z,13.80
2019-03-05T21:55:54.442Z,10.60
2019-03-05T22:01:10.424Z,9.73
2019-03-05T22:03:38.869Z,9.13
2019-03-05T22:06:07.428Z,9.53
2019-03-05T22:08:36.072Z,12.40
2019-03-05T22:11:04.817Z,12.47
2019-03-05T22:13:33.375Z,8.97
2019-03-05T22:16:21.059Z,12.07
2019-03-05T22:18:49.820Z,8.67
2019-03-05T22:21:37.553Z,10.63
2019-03-05T22:24:27.042Z,10.37
2019-03-05T22:26:55.529Z,9.63
2019-03-05T22:29:24.090Z,10.50
2019-03-05T22:32:12.070Z,8.90
2019-03-05T22:34:59.838Z,10.87
2019-03-05T22:40:22.649Z,9.97
2019-03-05T22:42:51.528Z,11.33
2019-03-05T22:46:00.012Z,10.70
2019-03-05T22:51:02.308Z,9.57
2019-03-05T22:53:31.048Z,9.80
2019-03-05T22:55:59.906Z,11.60
2019-03-05T22:58:47.546Z,10.43
2019-03-05T23:01:56.019Z,13.43
2019-03-05T23:05:04.384Z,11.00
2019-03-05T23:08:12.901Z,10.77
2019-03-05T23:10:41.693Z,10.37
2019-03-05T23:13:10.396Z,11.60
2019-03-05T23:15:58.191Z,11.00
2019-03-05T23:19:06.664Z,9.47
2019-03-05T23:27:06.357Z,10.63
2019-03-05T23:29:54.408Z,9.27
2019-03-05T23:32:22.990Z,12.17
2019-03-05T23:35:31.363Z,11.13
2019-03-05T23:38:19.050Z,9.97
2019-03-05T23:41:08.485Z,9.50
2019-03-05T23:44:17.826Z,13.07
2019-03-05T23:47:05.600Z,9.80
2019-03-05T23:50:14.289Z,9.77
2019-03-05T23:58:44.522Z,10.90
